Time;durP1;ratioP1;P1;durP2;ratioP2;P2;SDS_P1;SDS_P2;PMS_P1;PMS_P2;Temp;Humidity;BMP_temperature;BMP_pressure;BME280_temperature;BME280_humidity;BME280_pressure;Samples;Min_cycle;Max_cycle;Signal;HPM_P1;HPM_P2
2022/08/26 04:01:39;;;;;;;8.53;5.50;;;19.40;99.90;;;;;;5362326;23;20625;-72
2022/08/26 04:04:05;;;;;;;5.80;5.43;;;19.30;99.90;;;;;;4931799;29;20465;-74
2022/08/26 04:06:35;;;;;;;5.73;5.07;;;19.30;99.90;;;;;;4933841;29;20472;-72
2022/08/26 04:09:06;;;;;;;4.50;4.30;;;19.30;99.90;;;;;;4932873;29;20475;-72
2022/08/26 04:11:35;;;;;;;5.87;5.27;;;19.30;99.90;;;;;;4932892;29;20637;-72
2022/08/26 04:14:05;;;;;;;5.10;4.77;;;19.30;99.90;;;;;;4931508;29;20480;-73
2022/08/26 04:16:32;;;;;;;5.77;5.27;;;19.20;99.90;;;;;;4971592;23;20540;-71
2022/08/26 04:19:01;;;;;;;4.93;4.53;;;19.30;99.90;;;;;;4933164;29;20471;-71
2022/08/26 04:21:28;;;;;;;5.17;4.87;;;19.30;99.90;;;;;;4933389;29;20468;-71
2022/08/26 04:23:55;;;;;;;5.30;4.90;;;19.30;99.90;;;;;;4933088;29;20476;-71
2022/08/26 04:26:23;;;;;;;5.90;5.50;;;19.30;99.90;;;;;;4926182;29;20840;-71
2022/08/26 04:28:51;;;;;;;5.27;4.70;;;19.30;99.90;;;;;;4930946;29;20468;-72
2022/08/26 04:31:18;;;;;;;6.80;5.43;;;19.30;99.90;;;;;;4932583;29;20859;-71
2022/08/26 04:33:47;;;;;;;5.33;4.90;;;19.30;99.90;;;;;;4932538;29;20472;-71
2022/08/26 04:36:16;;;;;;;5.90;5.40;;;19.30;99.90;;;;;;4931197;29;20611;-71
2022/08/26 04:38:43;;;;;;;5.80;5.30;;;19.30;99.90;;;;;;4932812;29;20497;-72
2022/08/26 04:41:10;;;;;;;5.37;5.07;;;19.30;99.90;;;;;;4932840;29;20473;-72
2022/08/26 04:43:37;;;;;;;6.83;5.27;;;19.30;99.90;;;;;;4932233;29;20583;-71
2022/08/26 04:46:05;;;;;;;5.70;5.30;;;19.20;99.90;;;;;;4931657;29;20504;-72
2022/08/26 04:48:33;;;;;;;9.70;6.50;;;19.20;99.90;;;;;;4932424;29;20904;-72
2022/08/26 04:51:00;;;;;;;5.20;4.90;;;19.30;99.90;;;;;;4932181;29;20598;-72
2022/08/26 04:53:28;;;;;;;5.13;4.73;;;19.30;99.90;;;;;;4932659;29;20476;-72
2022/08/26 04:55:55;;;;;;;6.40;5.90;;;19.40;99.90;;;;;;4930620;29;20498;-72
2022/08/26 04:58:24;;;;;;;6.80;6.30;;;19.40;99.90;;;;;;4932581;29;20472;-72
2022/08/26 05:00:54;;;;;;;5.37;4.97;;;19.50;99.90;;;;;;4931929;29;20484;-72
2022/08/26 05:03:21;;;;;;;6.03;5.73;;;19.50;99.90;;;;;;4931598;29;20476;-72
2022/08/26 05:05:49;;;;;;;5.30;4.90;;;19.50;99.90;;;;;;4924652;29;20491;-72
2022/08/26 05:08:18;;;;;;;6.50;6.10;;;19.60;99.90;;;;;;4935880;29;20531;-72
2022/08/26 05:10:49;;;;;;;6.27;5.60;;;19.60;99.90;;;;;;4935223;29;20817;-71
2022/08/26 05:13:19;;;;;;;7.10;6.63;;;19.70;99.90;;;;;;4935496;29;20488;-72
2022/08/26 05:15:47;;;;;;;7.37;6.87;;;19.70;99.90;;;;;;4934553;29;20476;-72
2022/08/26 05:18:19;;;;;;;5.63;5.23;;;19.80;99.90;;;;;;4935863;29;20473;-72
2022/08/26 05:20:48;;;;;;;7.10;6.13;;;19.80;99.90;;;;;;4935900;29;20519;-72
2022/08/26 05:23:16;;;;;;;6.80;6.20;;;19.90;99.90;;;;;;4935640;29;20464;-72
2022/08/26 05:25:46;;;;;;;6.40;5.90;;;20.00;99.90;;;;;;4935066;29;20810;-73
2022/08/26 05:28:16;;;;;;;6.97;6.47;;;20.00;99.90;;;;;;4935921;29;20834;-73
2022/08/26 05:30:43;;;;;;;9.60;6.07;;;20.00;99.90;;;;;;4935076;29;20811;-73
2022/08/26 05:33:10;;;;;;;6.43;5.93;;;20.10;99.90;;;;;;4935469;29;21068;-73
2022/08/26 05:35:38;;;;;;;6.47;5.90;;;20.10;99.90;;;;;;4930427;29;20556;-73
2022/08/26 05:38:06;;;;;;;6.20;5.77;;;20.20;99.90;;;;;;4931144;29;21363;-73
2022/08/26 05:40:35;;;;;;;6.10;5.70;;;20.20;99.90;;;;;;4935154;29;20486;-72
2022/08/26 05:43:09;;;;;;;5.63;5.33;;;20.30;99.90;;;;;;4935252;29;20474;-72
2022/08/26 05:45:37;;;;;;;5.03;4.80;;;20.40;99.90;;;;;;4932853;29;20566;-72
2022/08/26 05:48:06;;;;;;;5.37;5.17;;;20.40;99.90;;;;;;4935421;29;20814;-73
2022/08/26 05:50:37;;;;;;;5.60;5.10;;;20.40;99.90;;;;;;4935374;29;20470;-72
2022/08/26 05:53:04;;;;;;;4.90;4.60;;;20.50;99.90;;;;;;4935707;29;20493;-72
2022/08/26 05:55:32;;;;;;;6.93;6.33;;;20.60;99.90;;;;;;4934117;29;20976;-72
2022/08/26 05:57:58;;;;;;;5.20;4.90;;;20.70;99.90;;;;;;4935180;29;20464;-73
2022/08/26 06:00:27;;;;;;;5.63;5.30;;;20.70;99.90;;;;;;4933889;29;20474;-73
2022/08/26 06:02:54;;;;;;;6.20;5.70;;;20.80;99.90;;;;;;4934695;29;20475;-73
2022/08/26 06:05:21;;;;;;;4.80;4.60;;;20.80;99.90;;;;;;4932858;29;20485;-72
2022/08/26 06:10:32;;;;;;;5.67;5.27;;;20.90;99.90;;;;;;4934704;29;20473;-72
2022/08/26 06:12:59;;;;;;;5.13;4.70;;;21.10;99.90;;;;;;4934951;29;20888;-72
2022/08/26 06:15:27;;;;;;;5.33;4.80;;;21.40;99.90;;;;;;4934162;29;20916;-71
2022/08/26 06:17:54;;;;;;;4.87;4.60;;;21.50;99.90;;;;;;4935461;29;20502;-72
2022/08/26 06:20:20;;;;;;;5.20;4.80;;;21.50;99.90;;;;;;4935884;29;20479;-72
2022/08/26 06:25:40;;;;;;;4.97;4.67;;;21.50;99.90;;;;;;4932503;29;20537;-71
2022/08/26 06:28:08;;;;;;;4.67;4.37;;;21.60;99.90;;;;;;4928351;29;20475;-74
2022/08/26 06:30:40;;;;;;;4.13;3.73;;;21.60;99.90;;;;;;4933920;29;20839;-72
2022/08/26 06:33:08;;;;;;;4.63;4.33;;;21.60;99.90;;;;;;4932420;29;20527;-71
2022/08/26 06:35:40;;;;;;;5.27;4.97;;;21.60;99.90;;;;;;4934522;29;20975;-72
2022/08/26 06:38:08;;;;;;;4.60;4.40;;;21.70;99.90;;;;;;4933912;29;20468;-71
2022/08/26 06:40:40;;;;;;;5.83;5.27;;;21.70;99.90;;;;;;4935227;29;20467;-72
2022/08/26 06:43:08;;;;;;;5.77;5.33;;;21.80;99.90;;;;;;4933475;29;20459;-71
2022/08/26 06:45:37;;;;;;;5.27;4.97;;;21.90;99.90;;;;;;4933514;29;20511;-72
2022/08/26 06:48:04;;;;;;;6.50;6.00;;;21.90;99.90;;;;;;4934140;29;20471;-72
2022/08/26 06:50:31;;;;;;;5.20;4.83;;;21.90;99.90;;;;;;4916650;29;20480;-71
2022/08/26 06:52:57;;;;;;;5.83;5.43;;;22.00;99.90;;;;;;4915365;29;20510;-74
2022/08/26 06:55:24;;;;;;;5.63;5.13;;;22.10;99.90;;;;;;4932347;29;20475;-72
2022/08/26 06:57:51;;;;;;;7.10;4.53;;;22.10;99.90;;;;;;4934362;29;20503;-72
2022/08/26 07:00:18;;;;;;;6.70;5.90;;;22.20;99.90;;;;;;4933885;29;20987;-72
2022/08/26 07:02:46;;;;;;;6.70;6.10;;;22.20;99.90;;;;;;4934596;29;20928;-72
2022/08/26 07:05:13;;;;;;;6.00;5.50;;;22.10;99.90;;;;;;4932043;29;20846;-72
2022/08/26 07:07:40;;;;;;;6.80;6.20;;;22.20;99.90;;;;;;4934502;29;20483;-72
2022/08/26 07:10:07;;;;;;;7.10;6.50;;;22.30;99.90;;;;;;4933355;29;20482;-72
2022/08/26 07:12:34;;;;;;;6.40;5.80;;;22.30;99.90;;;;;;4934135;29;20684;-72
2022/08/26 07:15:01;;;;;;;8.70;7.80;;;22.40;99.90;;;;;;4932415;29;20476;-73
2022/08/26 07:17:28;;;;;;;6.33;5.93;;;22.40;99.90;;;;;;4933925;29;20499;-73
2022/08/26 07:19:56;;;;;;;6.57;6.07;;;22.50;99.90;;;;;;4933155;29;20567;-72
2022/08/26 07:22:23;;;;;;;7.90;5.10;;;22.50;99.90;;;;;;4934192;29;20843;-72
2022/08/26 07:24:50;;;;;;;5.97;5.47;;;22.60;99.90;;;;;;4932001;29;20529;-73
2022/08/26 07:27:17;;;;;;;7.73;6.30;;;22.70;99.90;;;;;;4931039;29;21015;-72
2022/08/26 07:29:44;;;;;;;6.80;6.27;;;22.80;99.90;;;;;;4933663;29;20471;-72
2022/08/26 07:32:18;;;;;;;6.40;5.67;;;22.80;99.90;;;;;;4933737;29;20531;-71
2022/08/26 07:34:45;;;;;;;6.63;6.00;;;22.80;99.90;;;;;;4926187;29;20475;-72
2022/08/26 07:37:13;;;;;;;6.50;6.07;;;22.90;99.90;;;;;;4929459;29;20897;-70
2022/08/26 07:39:41;;;;;;;6.37;5.90;;;22.90;99.90;;;;;;4931764;29;20475;-71
2022/08/26 07:42:09;;;;;;;7.20;6.60;;;23.00;99.90;;;;;;4934081;29;20550;-72
2022/08/26 07:44:37;;;;;;;5.97;5.37;;;23.10;99.90;;;;;;4932380;29;20480;-72
2022/08/26 07:47:04;;;;;;;5.40;4.90;;;23.20;99.90;;;;;;4933903;29;20508;-72
2022/08/26 07:49:30;;;;;;;6.13;4.87;;;23.30;99.90;;;;;;4931975;29;21032;-72
2022/08/26 07:51:57;;;;;;;5.17;4.73;;;23.30;99.90;;;;;;4934454;29;20464;-72
2022/08/26 07:54:25;;;;;;;4.90;4.13;;;23.40;99.90;;;;;;4934593;29;20842;-71
2022/08/26 07:56:52;;;;;;;5.83;5.47;;;23.50;99.90;;;;;;4937149;29;20481;-71
2022/08/26 07:59:19;;;;;;;5.30;5.00;;;23.60;99.90;;;;;;4939985;29;20486;-72
2022/08/26 08:01:46;;;;;;;5.80;5.00;;;23.60;99.90;;;;;;4949864;29;20496;-71
2022/08/26 08:04:14;;;;;;;5.10;4.80;;;23.70;99.90;;;;;;4934909;29;20478;-72
2022/08/26 08:06:42;;;;;;;10.03;4.77;;;23.80;99.90;;;;;;4925995;29;20485;-72
2022/08/26 08:09:08;;;;;;;5.13;4.90;;;23.90;99.90;;;;;;4931448;29;20472;-72
2022/08/26 08:11:37;;;;;;;10.03;4.83;;;23.90;99.90;;;;;;4933564;29;20849;-72
2022/08/26 08:14:04;;;;;;;4.37;4.23;;;23.90;99.90;;;;;;4932577;29;20939;-72
2022/08/26 08:16:30;;;;;;;4.70;4.40;;;24.10;99.90;;;;;;4933488;29;20504;-71
2022/08/26 08:18:57;;;;;;;5.13;4.83;;;24.20;99.90;;;;;;4931018;29;20489;-72
2022/08/26 08:21:24;;;;;;;4.07;3.87;;;24.30;99.90;;;;;;4933312;29;20955;-72
2022/08/26 08:23:53;;;;;;;4.93;4.47;;;24.40;99.90;;;;;;4931666;29;20491;-72
2022/08/26 08:26:20;;;;;;;4.23;4.03;;;24.50;99.90;;;;;;4928285;29;20491;-72
2022/08/26 08:28:49;;;;;;;4.10;4.00;;;24.60;99.90;;;;;;4930600;29;20484;-72
2022/08/26 08:31:20;;;;;;;5.03;4.63;;;24.70;99.90;;;;;;4933496;29;20469;-72
2022/08/26 08:33:47;;;;;;;3.97;3.67;;;24.90;99.90;;;;;;4930477;29;20577;-72
2022/08/26 08:36:15;;;;;;;4.00;3.80;;;25.00;99.90;;;;;;4933335;29;20493;-72
2022/08/26 08:38:42;;;;;;;3.67;3.57;;;25.10;99.90;;;;;;4934126;29;20843;-72
2022/08/26 08:41:22;;;;;;;3.80;3.70;;;25.30;99.90;;;;;;4934694;29;20515;-72
2022/08/26 08:43:51;;;;;;;4.63;4.33;;;25.30;99.90;;;;;;4927423;29;20985;-71
2022/08/26 08:46:18;;;;;;;3.80;3.70;;;25.50;99.90;;;;;;4937024;29;20486;-71
2022/08/26 08:48:50;;;;;;;4.77;4.40;;;25.60;99.90;;;;;;4935852;29;20474;-71
2022/08/26 08:51:26;;;;;;;4.80;4.43;;;25.60;99.90;;;;;;4936972;29;20477;-71
2022/08/26 08:53:55;;;;;;;4.37;4.17;;;25.70;99.90;;;;;;4933948;29;20501;-72
2022/08/26 08:56:29;;;;;;;3.90;3.80;;;25.80;99.90;;;;;;4935736;29;20496;-72
2022/08/26 08:59:06;;;;;;;3.33;3.20;;;25.90;99.90;;;;;;4935869;29;20469;-71
2022/08/26 09:01:47;;;;;;;5.60;3.50;;;25.90;99.90;;;;;;4936717;29;20461;-71
2022/08/26 09:04:27;;;;;;;3.50;3.40;;;26.00;99.90;;;;;;4931243;29;20995;-72
2022/08/26 09:06:58;;;;;;;4.07;3.87;;;26.10;99.90;;;;;;4936727;29;20495;-72
2022/08/26 09:09:32;;;;;;;6.57;5.67;;;26.20;99.90;;;;;;4935722;29;20476;-71
2022/08/26 09:12:01;;;;;;;3.13;3.03;;;26.20;99.90;;;;;;4935236;29;20460;-72
2022/08/26 09:14:30;;;;;;;4.80;4.40;;;26.30;99.90;;;;;;4934734;29;20486;-71
2022/08/26 09:17:04;;;;;;;4.10;3.90;;;26.30;99.90;;;;;;4936326;29;20524;-72
2022/08/26 09:19:39;;;;;;;3.67;3.57;;;26.40;99.90;;;;;;4934929;29;20473;-72
2022/08/26 09:22:06;;;;;;;3.33;3.23;;;26.40;99.90;;;;;;4934879;29;20934;-72
2022/08/26 09:24:36;;;;;;;4.10;3.80;;;26.40;99.90;;;;;;4935250;29;20470;-72
2022/08/26 09:27:02;;;;;;;4.90;4.50;;;26.40;99.90;;;;;;4936252;29;20994;-72
2022/08/26 09:29:35;;;;;;;3.60;3.27;;;26.40;99.90;;;;;;4934465;29;20477;-72
2022/08/26 09:32:19;;;;;;;4.20;3.40;;;26.30;99.90;;;;;;4935295;29;20520;-72
2022/08/26 09:34:55;;;;;;;4.17;3.87;;;26.50;99.90;;;;;;4928315;29;20573;-72
2022/08/26 09:37:35;;;;;;;4.17;3.93;;;26.50;99.90;;;;;;4934231;29;20494;-72
2022/08/26 09:40:15;;;;;;;3.90;3.63;;;26.50;99.90;;;;;;4935187;29;20505;-73
2022/08/26 09:42:42;;;;;;;4.50;4.13;;;26.60;99.90;;;;;;4927034;29;20474;-71
2022/08/26 09:45:11;;;;;;;4.17;4.00;;;26.60;99.90;;;;;;4931174;29;20466;-73
2022/08/26 09:47:40;;;;;;;3.00;2.80;;;26.70;99.90;;;;;;4935862;29;20986;-73
2022/08/26 09:50:23;;;;;;;2.97;2.90;;;26.70;99.90;;;;;;4933732;29;20579;-72
2022/08/26 09:53:05;;;;;;;5.37;4.03;;;26.90;99.90;;;;;;4929532;29;20816;-72
2022/08/26 09:55:31;;;;;;;2.97;2.90;;;26.90;99.90;;;;;;4934869;29;20480;-72
2022/08/26 09:57:58;;;;;;;3.53;3.30;;;26.90;99.90;;;;;;4935280;29;20486;-72
2022/08/26 10:00:30;;;;;;;3.13;2.93;;;26.90;99.90;;;;;;4934795;29;20480;-71
2022/08/26 10:02:58;;;;;;;3.40;3.30;;;27.10;99.90;;;;;;4935312;29;20469;-72
2022/08/26 10:05:40;;;;;;;3.00;2.97;;;27.20;99.90;;;;;;4930856;29;20477;-72
2022/08/26 10:08:22;;;;;;;2.80;2.80;;;27.30;99.90;;;;;;4933738;29;21043;-73
2022/08/26 10:10:50;;;;;;;3.70;3.50;;;27.50;99.90;;;;;;4935337;29;20477;-72
2022/08/26 10:13:22;;;;;;;3.90;3.73;;;27.60;99.90;;;;;;4933169;29;20532;-72
2022/08/26 10:15:59;;;;;;;3.47;3.37;;;27.80;99.90;;;;;;4935470;29;20474;-72
2022/08/26 10:18:30;;;;;;;3.23;3.13;;;28.00;99.90;;;;;;4929711;23;20933;-71
2022/08/26 10:21:02;;;;;;;2.93;2.30;;;28.00;99.90;;;;;;4905564;29;21029;-70
2022/08/26 10:23:33;;;;;;;2.43;2.33;;;28.00;99.90;;;;;;4898075;29;20468;-72
2022/08/26 10:26:05;;;;;;;2.67;2.47;;;27.90;99.90;;;;;;4898736;29;20790;-72
2022/08/26 10:28:37;;;;;;;2.73;2.63;;;27.80;99.90;;;;;;4883788;29;20616;-71
2022/08/26 10:31:22;;;;;;;3.00;2.80;;;27.90;99.90;;;;;;4897308;29;20475;-72
2022/08/26 10:33:48;;;;;;;2.47;2.37;;;28.10;99.90;;;;;;4883629;29;20492;-72
2022/08/26 10:39:07;;;;;;;2.73;2.70;;;28.00;99.90;;;;;;4883340;29;20877;-72
2022/08/26 10:41:39;;;;;;;5.13;3.87;;;28.00;99.90;;;;;;4888424;29;20814;-70
2022/08/26 10:44:08;;;;;;;2.13;2.13;;;28.00;99.90;;;;;;4881451;29;20477;-72
2022/08/26 10:46:42;;;;;;;2.47;2.37;;;28.00;99.90;;;;;;4886282;29;20477;-71
2022/08/26 10:49:11;;;;;;;2.47;2.47;;;28.00;99.90;;;;;;4883703;29;20498;-71
2022/08/26 10:51:45;;;;;;;3.23;3.10;;;28.10;99.90;;;;;;4886057;29;20469;-72
2022/08/26 10:54:18;;;;;;;3.60;2.43;;;28.10;99.90;;;;;;4884553;29;20624;-71
2022/08/26 10:56:54;;;;;;;2.47;2.33;;;28.20;99.90;;;;;;4859548;29;20629;-72
2022/08/26 10:59:31;;;;;;;3.97;3.63;;;28.20;99.90;;;;;;4884460;29;20527;-71
2022/08/26 11:02:06;;;;;;;3.27;3.13;;;28.10;99.90;;;;;;4880586;29;21102;-71
2022/08/26 11:04:44;;;;;;;3.87;3.57;;;28.20;99.90;;;;;;4886030;29;20549;-72
2022/08/26 11:07:32;;;;;;;3.37;2.90;;;28.20;99.90;;;;;;4892432;29;20805;-71
2022/08/26 11:10:00;;;;;;;3.30;2.33;;;28.30;99.90;;;;;;4880354;29;20461;-71
2022/08/26 11:12:46;;;;;;;3.23;3.13;;;28.30;99.90;;;;;;4878143;29;20492;-71
2022/08/26 11:16:08;;;;;;;2.90;2.70;;;28.20;99.90;;;;;;4896566;29;20599;-72
2022/08/26 11:18:53;;;;;;;3.07;2.87;;;28.30;99.90;;;;;;4889680;29;20508;-71
2022/08/26 11:21:49;;;;;;;3.40;2.67;;;28.40;99.90;;;;;;4894247;29;20468;-71
2022/08/26 11:24:45;;;;;;;2.80;2.70;;;28.50;99.90;;;;;;4888454;29;20879;-71
2022/08/26 11:28:05;;;;;;;5.13;2.70;;;28.40;99.90;;;;;;4886278;29;20464;-72
2022/08/26 11:30:48;;;;;;;2.67;2.57;;;28.40;99.90;;;;;;4884778;29;20556;-72
2022/08/26 11:33:57;;;;;;;6.50;2.97;;;28.40;99.90;;;;;;4883228;29;20527;-72
2022/08/26 11:36:43;;;;;;;2.83;2.70;;;28.50;99.90;;;;;;4883251;29;20472;-72
2022/08/26 11:39:20;;;;;;;2.73;2.53;;;28.50;99.90;;;;;;4875934;29;20500;-71
2022/08/26 11:41:49;;;;;;;2.60;2.50;;;28.30;99.90;;;;;;4883450;29;21045;-72
2022/08/26 11:44:19;;;;;;;2.93;2.60;;;28.30;99.90;;;;;;4883234;29;20479;-72
2022/08/26 11:46:55;;;;;;;3.37;3.07;;;28.40;99.90;;;;;;4884349;29;20806;-71
2022/08/26 11:49:21;;;;;;;2.27;2.27;;;28.50;99.90;;;;;;4877078;29;20472;-73
2022/08/26 11:51:48;;;;;;;3.00;2.80;;;28.50;99.90;;;;;;4884235;29;20474;-72
2022/08/26 11:54:17;;;;;;;2.50;2.40;;;28.50;99.90;;;;;;4883339;29;20484;-71
2022/08/26 11:56:47;;;;;;;2.10;2.10;;;28.50;99.90;;;;;;4884331;29;20476;-72
2022/08/26 11:59:19;;;;;;;3.53;3.30;;;28.40;99.90;;;;;;4875860;29;20497;-71
2022/08/26 12:01:51;;;;;;;3.03;2.80;;;28.40;99.90;;;;;;4882244;29;20463;-72
2022/08/26 12:04:27;;;;;;;3.33;2.50;;;28.60;99.90;;;;;;4879513;29;20854;-72
2022/08/26 12:06:54;;;;;;;2.37;2.23;;;28.80;99.90;;;;;;4887005;29;20475;-71
2022/08/26 12:09:23;;;;;;;2.50;2.40;;;28.80;99.90;;;;;;4886863;29;20486;-71
2022/08/26 12:11:49;;;;;;;2.40;2.40;;;28.80;99.90;;;;;;4893096;29;21041;-72
2022/08/26 12:14:23;;;;;;;5.17;2.50;;;29.00;99.90;;;;;;4876384;29;20492;-72
2022/08/26 12:16:50;;;;;;;3.00;2.90;;;29.10;99.90;;;;;;4879378;29;20480;-72
2022/08/26 12:19:27;;;;;;;2.50;2.30;;;29.20;99.90;;;;;;4884400;29;21031;-72
2022/08/26 12:21:58;;;;;;;5.23;2.50;;;29.30;99.90;;;;;;4885763;29;20484;-71
2022/08/26 12:24:25;;;;;;;2.20;2.10;;;29.40;99.90;;;;;;4883961;29;20475;-72
2022/08/26 12:27:10;;;;;;;1.90;1.90;;;29.40;99.90;;;;;;4875504;29;20476;-72
2022/08/26 12:29:37;;;;;;;2.80;2.70;;;29.40;99.90;;;;;;4883880;29;20497;-72
2022/08/26 12:32:08;;;;;;;2.63;2.53;;;29.50;99.90;;;;;;4875643;29;20484;-71
2022/08/26 12:34:36;;;;;;;2.73;2.60;;;29.50;99.90;;;;;;4890679;29;20496;-71
2022/08/26 12:37:03;;;;;;;2.23;2.23;;;29.50;99.90;;;;;;4875957;29;20481;-71
2022/08/26 12:39:34;;;;;;;3.77;2.30;;;29.40;99.90;;;;;;4884272;29;20465;-71
2022/08/26 12:42:01;;;;;;;1.57;1.57;;;29.40;99.90;;;;;;4876314;29;20496;-70
2022/08/26 12:44:50;;;;;;;2.43;2.37;;;29.20;99.90;;;;;;4877566;29;20461;-70
2022/08/26 12:47:24;;;;;;;2.87;2.77;;;29.00;99.90;;;;;;4884297;29;20865;-71
2022/08/26 12:50:02;;;;;;;2.10;2.00;;;28.90;99.90;;;;;;4882517;29;20469;-70
2022/08/26 12:52:31;;;;;;;3.10;2.30;;;28.90;99.90;;;;;;4877167;29;20825;-71
2022/08/26 12:55:01;;;;;;;2.83;1.77;;;29.00;99.90;;;;;;4893196;29;20535;-71
2022/08/26 12:57:31;;;;;;;3.47;2.83;;;29.00;99.90;;;;;;4876759;29;20904;-71
2022/08/26 13:00:24;;;;;;;3.03;2.60;;;29.00;99.90;;;;;;4884272;29;20461;-71
2022/08/26 13:02:51;;;;;;;2.53;2.37;;;28.90;99.90;;;;;;4874034;29;21025;-71
2022/08/26 13:05:22;;;;;;;1.43;1.43;;;28.70;99.90;;;;;;4892252;29;20521;-71
2022/08/26 13:08:09;;;;;;;1.90;1.90;;;28.70;99.90;;;;;;4882241;29;20516;-72
2022/08/26 13:10:38;;;;;;;2.93;2.70;;;28.60;99.90;;;;;;4883225;29;20981;-72
2022/08/26 13:13:05;;;;;;;2.30;2.20;;;28.60;99.90;;;;;;4875590;29;20496;-73
2022/08/26 13:15:31;;;;;;;1.77;1.77;;;28.60;99.90;;;;;;4876283;29;20485;-72
2022/08/26 13:17:58;;;;;;;2.33;2.23;;;28.50;99.90;;;;;;4880640;29;20510;-71
2022/08/26 13:20:26;;;;;;;1.90;1.80;;;28.50;99.90;;;;;;4887148;29;20464;-71
2022/08/26 13:22:53;;;;;;;6.23;2.10;;;28.50;99.90;;;;;;4882397;29;20479;-71
2022/08/26 13:25:20;;;;;;;2.67;2.30;;;28.50;99.90;;;;;;4893335;29;20483;-70
2022/08/26 13:27:47;;;;;;;2.27;2.17;;;28.50;99.90;;;;;;4884597;29;20500;-71
2022/08/26 13:30:14;;;;;;;2.03;2.03;;;28.40;99.90;;;;;;4890407;29;20992;-70
2022/08/26 13:32:41;;;;;;;2.13;2.03;;;28.40;99.90;;;;;;4882298;29;20471;-71
2022/08/26 13:35:08;;;;;;;2.87;2.60;;;28.40;99.90;;;;;;4883257;29;20518;-70
2022/08/26 13:37:36;;;;;;;3.17;2.40;;;28.40;99.90;;;;;;4887231;29;20976;-71
2022/08/26 13:40:05;;;;;;;2.27;2.27;;;28.40;99.90;;;;;;4885710;29;20476;-70
2022/08/26 13:42:32;;;;;;;2.50;2.30;;;28.40;99.90;;;;;;4881614;29;20484;-69
2022/08/26 13:44:59;;;;;;;3.43;1.90;;;28.40;99.90;;;;;;4884663;29;20465;-70
2022/08/26 13:47:27;;;;;;;2.03;2.03;;;28.40;99.90;;;;;;4879300;29;20630;-71
2022/08/26 13:49:54;;;;;;;2.13;2.13;;;28.50;99.90;;;;;;4892280;29;20469;-71
2022/08/26 13:52:20;;;;;;;2.03;1.93;;;28.50;99.90;;;;;;4877056;29;20480;-72
2022/08/26 13:54:48;;;;;;;2.03;1.80;;;28.70;99.90;;;;;;4883781;29;21098;-71
2022/08/26 13:57:15;;;;;;;1.97;1.80;;;28.80;99.90;;;;;;4883756;29;20459;-71
2022/08/26 13:59:42;;;;;;;2.17;2.07;;;29.00;99.90;;;;;;4892308;29;20469;-72
2022/08/26 14:02:09;;;;;;;1.97;1.87;;;29.00;99.90;;;;;;4886881;29;20906;-70
2022/08/26 14:04:35;;;;;;;2.37;2.00;;;29.10;99.90;;;;;;4892160;29;20476;-72
2022/08/26 14:07:02;;;;;;;2.73;2.63;;;29.20;99.90;;;;;;4893032;29;20921;-72
2022/08/26 14:09:29;;;;;;;4.10;2.23;;;29.30;99.90;;;;;;4894885;29;20460;-71
2022/08/26 14:11:57;;;;;;;2.70;2.50;;;29.30;99.90;;;;;;4884388;29;20464;-71
2022/08/26 14:14:24;;;;;;;3.63;3.30;;;29.20;99.90;;;;;;4876934;29;20501;-70
2022/08/26 14:16:51;;;;;;;2.67;2.57;;;29.20;99.90;;;;;;4877149;29;20460;-72
2022/08/26 14:19:18;;;;;;;2.40;2.30;;;29.20;99.90;;;;;;4880067;29;20501;-70
2022/08/26 14:21:45;;;;;;;3.07;1.83;;;29.20;99.90;;;;;;4886764;29;20464;-70
2022/08/26 14:24:12;;;;;;;2.33;2.23;;;29.20;99.90;;;;;;4877460;29;20469;-70
2022/08/26 14:26:39;;;;;;;2.27;2.27;;;29.10;99.90;;;;;;4878534;29;20957;-71
2022/08/26 14:29:07;;;;;;;2.30;2.20;;;29.00;99.90;;;;;;4877782;29;20835;-70
2022/08/26 14:31:35;;;;;;;2.10;2.10;;;29.00;99.90;;;;;;4886354;29;20479;-72
2022/08/26 14:34:05;;;;;;;2.30;2.20;;;28.90;99.90;;;;;;4877598;29;20949;-71
2022/08/26 14:36:33;;;;;;;4.23;3.20;;;28.90;99.90;;;;;;4886242;29;20472;-71
2022/08/26 14:39:03;;;;;;;2.20;2.20;;;28.80;99.90;;;;;;4896770;29;20857;-71
2022/08/26 14:41:31;;;;;;;1.90;1.80;;;28.80;99.90;;;;;;4878496;29;20587;-70
2022/08/26 14:44:01;;;;;;;1.50;1.50;;;28.70;99.90;;;;;;4885225;29;20829;-71
2022/08/26 14:46:32;;;;;;;2.30;2.20;;;28.60;99.90;;;;;;4886280;29;20472;-71
2022/08/26 14:49:00;;;;;;;2.43;1.70;;;28.50;99.90;;;;;;4896734;29;20484;-71
2022/08/26 14:51:27;;;;;;;3.23;2.33;;;28.50;99.90;;;;;;4882132;29;20998;-72
2022/08/26 14:54:12;;;;;;;3.40;2.30;;;28.40;99.90;;;;;;4896971;29;20479;-71
2022/08/26 14:56:42;;;;;;;2.50;1.80;;;28.30;99.90;;;;;;4889573;29;20468;-71
2022/08/26 14:59:09;;;;;;;4.60;2.40;;;28.30;99.90;;;;;;4896154;29;21016;-72
2022/08/26 15:01:37;;;;;;;3.63;3.53;;;28.20;99.90;;;;;;4877755;29;20478;-71
2022/08/26 15:04:05;;;;;;;2.50;2.50;;;28.00;99.90;;;;;;4891308;29;20837;-71
2022/08/26 15:06:31;;;;;;;23.83;3.37;;;27.90;99.90;;;;;;4883203;29;20477;-71
2022/08/26 15:08:58;;;;;;;2.17;2.03;;;27.70;99.90;;;;;;4883184;29;20985;-71
2022/08/26 15:11:25;;;;;;;2.50;2.50;;;27.20;99.90;;;;;;4882998;29;22574;-70
2022/08/26 15:13:52;;;;;;;2.63;2.63;;;26.50;99.90;;;;;;4882028;29;20991;-71
2022/08/26 15:16:20;;;;;;;3.07;2.63;;;26.20;99.90;;;;;;4884002;29;20531;-71
2022/08/26 15:18:50;;;;;;;2.70;2.50;;;26.00;99.90;;;;;;4883293;29;20508;-71
2022/08/26 15:21:17;;;;;;;2.10;2.10;;;25.90;99.90;;;;;;4887489;29;21157;-72
2022/08/26 15:23:44;;;;;;;2.30;2.20;;;25.80;99.90;;;;;;4885452;29;20484;-73
2022/08/26 15:26:12;;;;;;;3.37;3.07;;;25.70;99.90;;;;;;4888051;29;20475;-71
2022/08/26 15:28:39;;;;;;;3.33;2.93;;;25.50;99.90;;;;;;4885891;29;20581;-71
2022/08/26 15:31:07;;;;;;;2.73;2.63;;;25.30;99.90;;;;;;4893562;29;20472;-71
2022/08/26 15:33:34;;;;;;;3.13;2.97;;;25.20;99.90;;;;;;4887933;29;20474;-71
2022/08/26 15:36:04;;;;;;;2.80;2.60;;;25.10;99.90;;;;;;4886624;29;20503;-71
2022/08/26 15:38:32;;;;;;;3.33;2.30;;;25.10;99.90;;;;;;4884309;29;20502;-70
2022/08/26 15:41:01;;;;;;;2.97;2.73;;;25.00;99.90;;;;;;4877118;29;20586;-71
2022/08/26 15:43:28;;;;;;;2.43;2.40;;;25.00;99.90;;;;;;4884146;29;21138;-71
2022/08/26 15:45:55;;;;;;;3.37;3.00;;;25.00;99.90;;;;;;4876139;29;20474;-71
2022/08/26 15:48:23;;;;;;;3.00;2.90;;;25.00;99.90;;;;;;4891401;29;20861;-71
2022/08/26 15:50:51;;;;;;;2.83;2.73;;;24.90;99.90;;;;;;4877356;29;20804;-70
2022/08/26 15:53:20;;;;;;;3.63;3.43;;;24.90;99.90;;;;;;4884669;29;20499;-71
2022/08/26 15:55:47;;;;;;;2.17;2.07;;;24.70;99.90;;;;;;4875802;29;20490;-70
2022/08/26 15:58:14;;;;;;;4.73;4.27;;;24.70;99.90;;;;;;4876574;29;20491;-70
2022/08/26 16:00:41;;;;;;;3.07;2.97;;;24.70;99.90;;;;;;4876436;29;20487;-70
2022/08/26 16:03:08;;;;;;;3.43;3.23;;;24.70;99.90;;;;;;4883043;29;21307;-71
2022/08/26 16:05:36;;;;;;;3.10;3.00;;;24.70;99.90;;;;;;4876603;29;20544;-71
2022/08/26 16:08:05;;;;;;;3.83;3.60;;;24.80;99.90;;;;;;4890640;29;20477;-70
2022/08/26 16:10:33;;;;;;;3.30;3.20;;;24.90;99.90;;;;;;4894389;29;20528;-70
2022/08/26 16:13:00;;;;;;;2.73;2.63;;;24.90;99.90;;;;;;4884771;29;20467;-70
2022/08/26 16:15:27;;;;;;;2.27;2.27;;;24.70;99.90;;;;;;4877934;29;20952;-70
2022/08/26 16:17:54;;;;;;;2.73;2.63;;;24.80;99.90;;;;;;4888314;29;20502;-70
2022/08/26 16:20:21;;;;;;;2.70;2.60;;;24.50;99.90;;;;;;4935932;23;20511;-73
2022/08/26 16:22:48;;;;;;;2.27;2.17;;;24.20;99.90;;;;;;4930883;29;20484;-74
2022/08/26 16:25:14;;;;;;;2.47;2.37;;;24.00;99.90;;;;;;4933562;29;20476;-74
2022/08/26 16:27:42;;;;;;;2.20;2.10;;;23.90;99.90;;;;;;4932336;29;20472;-74
2022/08/26 16:30:11;;;;;;;2.40;2.20;;;23.70;99.90;;;;;;4919294;29;20497;-74
2022/08/26 16:32:37;;;;;;;2.73;2.63;;;23.60;99.90;;;;;;4910746;29;20870;-74
2022/08/26 16:35:06;;;;;;;3.50;3.27;;;23.60;99.90;;;;;;4914318;29;20591;-73
2022/08/26 16:37:32;;;;;;;1.70;1.70;;;23.60;99.90;;;;;;4924230;29;20486;-74
2022/08/26 16:39:59;;;;;;;2.30;2.20;;;23.60;99.90;;;;;;4928573;29;20506;-74
2022/08/26 16:42:26;;;;;;;2.90;2.70;;;23.50;99.90;;;;;;4923993;29;21004;-75
2022/08/26 16:44:54;;;;;;;2.10;2.10;;;23.40;99.90;;;;;;4921055;29;20471;-74
2022/08/26 16:47:21;;;;;;;2.03;1.93;;;23.40;99.90;;;;;;4905826;29;20816;-75
2022/08/26 16:49:48;;;;;;;3.20;3.07;;;23.30;99.90;;;;;;4919795;29;20567;-74
2022/08/26 16:52:15;;;;;;;1.80;1.80;;;23.20;99.90;;;;;;4916307;29;20488;-74
2022/08/26 16:54:42;;;;;;;1.63;1.53;;;23.10;99.90;;;;;;4914078;29;20468;-74
2022/08/26 16:57:11;;;;;;;2.10;2.00;;;23.00;99.90;;;;;;4919915;29;20983;-74
2022/08/26 16:59:39;;;;;;;2.20;1.90;;;22.90;99.90;;;;;;4927131;29;20483;-74
2022/08/26 17:02:09;;;;;;;1.50;1.50;;;22.90;99.90;;;;;;4918711;29;20847;-74
2022/08/26 17:04:36;;;;;;;3.83;2.00;;;22.80;99.90;;;;;;4916821;29;20472;-73
2022/08/26 17:07:02;;;;;;;1.70;1.70;;;22.80;99.90;;;;;;4918954;29;20468;-74
2022/08/26 17:09:30;;;;;;;1.63;1.63;;;22.80;99.90;;;;;;4918914;29;20594;-74